sensor_id;sensor_type;location;lat;lon;timestamp;P1;durP1;ratioP1;P2;durP2;ratioP2
66721;SDS011;53633;49.932;10.884;2022-09-30T00:02:19;7.00;;;2.73;;
66721;SDS011;53633;49.932;10.884;2022-09-30T00:04:47;6.47;;;2.75;;
66721;SDS011;53633;49.932;10.884;2022-09-30T00:07:13;7.18;;;2.80;;
66721;SDS011;53633;49.932;10.884;2022-09-30T00:09:40;7.28;;;2.90;;
66721;SDS011;53633;49.932;10.884;2022-09-30T00:12:06;5.13;;;2.28;;
66721;SDS011;53633;49.932;10.884;2022-09-30T00:14:33;7.57;;;2.97;;
66721;SDS011;53633;49.932;10.884;2022-09-30T00:17:00;7.82;;;2.50;;
66721;SDS011;53633;49.932;10.884;2022-09-30T00:19:26;7.57;;;2.95;;
66721;SDS011;53633;49.932;10.884;2022-09-30T00:21:54;6.47;;;2.80;;
66721;SDS011;53633;49.932;10.884;2022-09-30T00:24:21;7.85;;;3.00;;
66721;SDS011;53633;49.932;10.884;2022-09-30T00:26:47;6.20;;;2.53;;
66721;SDS011;53633;49.932;10.884;2022-09-30T00:29:14;6.93;;;2.45;;
66721;SDS011;53633;49.932;10.884;2022-09-30T00:31:40;6.40;;;2.65;;
66721;SDS011;53633;49.932;10.884;2022-09-30T00:34:07;7.95;;;2.95;;
66721;SDS011;53633;49.932;10.884;2022-09-30T00:36:35;7.90;;;3.08;;
66721;SDS011;53633;49.932;10.884;2022-09-30T00:39:05;8.57;;;3.43;;
66721;SDS011;53633;49.932;10.884;2022-09-30T00:41:33;10.50;;;4.28;;
66721;SDS011;53633;49.932;10.884;2022-09-30T00:44:00;16.85;;;4.00;;
66721;SDS011;53633;49.932;10.884;2022-09-30T00:46:29;12.55;;;3.72;;
66721;SDS011;53633;49.932;10.884;2022-09-30T00:49:01;12.52;;;4.03;;
66721;SDS011;53633;49.932;10.884;2022-09-30T00:51:32;17.90;;;5.70;;
66721;SDS011;53633;49.932;10.884;2022-09-30T00:54:02;20.42;;;5.78;;
66721;SDS011;53633;49.932;10.884;2022-09-30T00:56:36;15.70;;;6.07;;
66721;SDS011;53633;49.932;10.884;2022-09-30T00:59:05;19.38;;;5.57;;
66721;SDS011;53633;49.932;10.884;2022-09-30T01:01:35;19.35;;;5.80;;
66721;SDS011;53633;49.932;10.884;2022-09-30T01:04:05;16.23;;;6.17;;
66721;SDS011;53633;49.932;10.884;2022-09-30T01:06:36;11.90;;;5.30;;
66721;SDS011;53633;49.932;10.884;2022-09-30T01:09:03;10.68;;;5.18;;
66721;SDS011;53633;49.932;10.884;2022-09-30T01:11:31;9.82;;;4.43;;
66721;SDS011;53633;49.932;10.884;2022-09-30T01:13:58;13.20;;;4.28;;
66721;SDS011;53633;49.932;10.884;2022-09-30T01:19:25;10.93;;;4.35;;
66721;SDS011;53633;49.932;10.884;2022-09-30T01:22:20;13.35;;;3.97;;
66721;SDS011;53633;49.932;10.884;2022-09-30T01:25:04;11.10;;;3.97;;
66721;SDS011;53633;49.932;10.884;2022-09-30T01:28:00;14.60;;;4.47;;
66721;SDS011;53633;49.932;10.884;2022-09-30T01:30:54;15.50;;;4.43;;
66721;SDS011;53633;49.932;10.884;2022-09-30T01:33:34;16.65;;;4.97;;
66721;SDS011;53633;49.932;10.884;2022-09-30T01:36:17;14.32;;;4.70;;
66721;SDS011;53633;49.932;10.884;2022-09-30T01:38:58;23.33;;;5.10;;
66721;SDS011;53633;49.932;10.884;2022-09-30T01:41:33;24.88;;;4.90;;
66721;SDS011;53633;49.932;10.884;2022-09-30T01:44:08;10.83;;;4.33;;
66721;SDS011;53633;49.932;10.884;2022-09-30T01:46:43;11.98;;;4.95;;
66721;SDS011;53633;49.932;10.884;2022-09-30T01:49:15;11.30;;;4.88;;
66721;SDS011;53633;49.932;10.884;2022-09-30T01:51:50;16.58;;;4.68;;
66721;SDS011;53633;49.932;10.884;2022-09-30T01:54:23;18.67;;;4.88;;
66721;SDS011;53633;49.932;10.884;2022-09-30T01:56:57;12.00;;;3.87;;
66721;SDS011;53633;49.932;10.884;2022-09-30T01:59:30;9.73;;;3.65;;
66721;SDS011;53633;49.932;10.884;2022-09-30T02:02:03;19.65;;;4.22;;
66721;SDS011;53633;49.932;10.884;2022-09-30T02:04:35;10.07;;;3.67;;
66721;SDS011;53633;49.932;10.884;2022-09-30T02:07:05;9.15;;;3.83;;
66721;SDS011;53633;49.932;10.884;2022-09-30T02:09:36;8.80;;;3.80;;
66721;SDS011;53633;49.932;10.884;2022-09-30T02:12:06;8.57;;;3.58;;
66721;SDS011;53633;49.932;10.884;2022-09-30T02:14:38;9.70;;;3.80;;
66721;SDS011;53633;49.932;10.884;2022-09-30T02:17:09;8.63;;;3.40;;
66721;SDS011;53633;49.932;10.884;2022-09-30T02:19:42;9.68;;;3.75;;
66721;SDS011;53633;49.932;10.884;2022-09-30T02:22:12;11.50;;;3.40;;
66721;SDS011;53633;49.932;10.884;2022-09-30T02:24:41;10.25;;;3.25;;
66721;SDS011;53633;49.932;10.884;2022-09-30T02:27:11;7.70;;;2.97;;
66721;SDS011;53633;49.932;10.884;2022-09-30T02:29:42;14.10;;;3.30;;
66721;SDS011;53633;49.932;10.884;2022-09-30T02:32:14;14.32;;;3.60;;
66721;SDS011;53633;49.932;10.884;2022-09-30T02:34:44;12.13;;;4.83;;
66721;SDS011;53633;49.932;10.884;2022-09-30T02:37:15;10.30;;;3.78;;
66721;SDS011;53633;49.932;10.884;2022-09-30T02:39:46;15.48;;;3.90;;
66721;SDS011;53633;49.932;10.884;2022-09-30T02:42:17;12.68;;;3.70;;
66721;SDS011;53633;49.932;10.884;2022-09-30T02:44:47;12.02;;;4.60;;
66721;SDS011;53633;49.932;10.884;2022-09-30T02:47:18;10.43;;;3.50;;
66721;SDS011;53633;49.932;10.884;2022-09-30T02:49:54;8.80;;;3.53;;
66721;SDS011;53633;49.932;10.884;2022-09-30T02:52:26;8.43;;;3.88;;
66721;SDS011;53633;49.932;10.884;2022-09-30T02:55:03;7.72;;;3.58;;
66721;SDS011;53633;49.932;10.884;2022-09-30T02:57:41;8.82;;;3.50;;
66721;SDS011;53633;49.932;10.884;2022-09-30T03:00:12;8.87;;;3.53;;
66721;SDS011;53633;49.932;10.884;2022-09-30T03:02:41;7.95;;;2.90;;
66721;SDS011;53633;49.932;10.884;2022-09-30T03:05:08;10.00;;;2.97;;
66721;SDS011;53633;49.932;10.884;2022-09-30T03:07:35;13.55;;;3.25;;
66721;SDS011;53633;49.932;10.884;2022-09-30T03:10:05;9.82;;;3.45;;
66721;SDS011;53633;49.932;10.884;2022-09-30T03:12:38;9.30;;;3.20;;
66721;SDS011;53633;49.932;10.884;2022-09-30T03:15:27;9.65;;;3.35;;
66721;SDS011;53633;49.932;10.884;2022-09-30T03:18:06;7.40;;;2.78;;
66721;SDS011;53633;49.932;10.884;2022-09-30T03:20:43;9.68;;;3.30;;
66721;SDS011;53633;49.932;10.884;2022-09-30T03:26:13;7.30;;;2.80;;
66721;SDS011;53633;49.932;10.884;2022-09-30T03:28:51;9.27;;;3.22;;
66721;SDS011;53633;49.932;10.884;2022-09-30T03:31:28;12.18;;;3.20;;
66721;SDS011;53633;49.932;10.884;2022-09-30T03:34:03;8.68;;;3.38;;
66721;SDS011;53633;49.932;10.884;2022-09-30T03:36:41;13.25;;;3.90;;
66721;SDS011;53633;49.932;10.884;2022-09-30T03:39:18;12.47;;;3.67;;
66721;SDS011;53633;49.932;10.884;2022-09-30T03:41:51;10.52;;;3.95;;
66721;SDS011;53633;49.932;10.884;2022-09-30T03:44:24;9.10;;;4.20;;
66721;SDS011;53633;49.932;10.884;2022-09-30T03:46:56;9.35;;;3.55;;
66721;SDS011;53633;49.932;10.884;2022-09-30T03:49:29;9.35;;;4.00;;
66721;SDS011;53633;49.932;10.884;2022-09-30T03:51:59;15.30;;;4.53;;
66721;SDS011;53633;49.932;10.884;2022-09-30T03:54:31;11.73;;;4.00;;
66721;SDS011;53633;49.932;10.884;2022-09-30T03:56:57;12.10;;;3.78;;
66721;SDS011;53633;49.932;10.884;2022-09-30T03:59:24;14.60;;;4.90;;
66721;SDS011;53633;49.932;10.884;2022-09-30T04:01:52;9.75;;;4.22;;
66721;SDS011;53633;49.932;10.884;2022-09-30T04:04:19;16.27;;;4.40;;
66721;SDS011;53633;49.932;10.884;2022-09-30T04:06:47;11.77;;;4.45;;
66721;SDS011;53633;49.932;10.884;2022-09-30T04:09:14;20.88;;;4.38;;
66721;SDS011;53633;49.932;10.884;2022-09-30T04:11:41;22.38;;;4.93;;
66721;SDS011;53633;49.932;10.884;2022-09-30T04:14:08;18.38;;;4.88;;
66721;SDS011;53633;49.932;10.884;2022-09-30T04:16:34;14.90;;;5.50;;
66721;SDS011;53633;49.932;10.884;2022-09-30T04:19:01;17.38;;;5.80;;
66721;SDS011;53633;49.932;10.884;2022-09-30T04:21:28;12.07;;;4.82;;
66721;SDS011;53633;49.932;10.884;2022-09-30T04:23:56;14.25;;;5.07;;
66721;SDS011;53633;49.932;10.884;2022-09-30T04:26:22;14.57;;;5.15;;
66721;SDS011;53633;49.932;10.884;2022-09-30T04:28:49;12.60;;;4.67;;
66721;SDS011;53633;49.932;10.884;2022-09-30T04:31:17;14.70;;;4.18;;
66721;SDS011;53633;49.932;10.884;2022-09-30T04:33:43;12.98;;;4.00;;
66721;SDS011;53633;49.932;10.884;2022-09-30T04:36:10;9.20;;;4.03;;
66721;SDS011;53633;49.932;10.884;2022-09-30T04:38:37;18.88;;;4.28;;
66721;SDS011;53633;49.932;10.884;2022-09-30T04:41:05;19.50;;;4.10;;
66721;SDS011;53633;49.932;10.884;2022-09-30T04:43:32;11.45;;;3.80;;
66721;SDS011;53633;49.932;10.884;2022-09-30T04:45:59;21.90;;;5.50;;
66721;SDS011;53633;49.932;10.884;2022-09-30T04:48:26;14.68;;;4.43;;
66721;SDS011;53633;49.932;10.884;2022-09-30T04:50:53;26.42;;;5.72;;
66721;SDS011;53633;49.932;10.884;2022-09-30T04:53:19;10.20;;;4.23;;
66721;SDS011;53633;49.932;10.884;2022-09-30T04:55:56;20.42;;;6.15;;
66721;SDS011;53633;49.932;10.884;2022-09-30T04:58:25;16.48;;;4.95;;
66721;SDS011;53633;49.932;10.884;2022-09-30T05:00:58;10.80;;;3.78;;
66721;SDS011;53633;49.932;10.884;2022-09-30T05:03:25;19.15;;;4.75;;
66721;SDS011;53633;49.932;10.884;2022-09-30T05:05:52;18.07;;;4.90;;
66721;SDS011;53633;49.932;10.884;2022-09-30T05:08:19;14.38;;;4.88;;
66721;SDS011;53633;49.932;10.884;2022-09-30T05:10:51;17.40;;;5.05;;
66721;SDS011;53633;49.932;10.884;2022-09-30T05:13:18;11.15;;;4.57;;
66721;SDS011;53633;49.932;10.884;2022-09-30T05:15:48;9.48;;;4.57;;
66721;SDS011;53633;49.932;10.884;2022-09-30T05:18:15;11.40;;;4.40;;
66721;SDS011;53633;49.932;10.884;2022-09-30T05:20:41;14.23;;;4.82;;
66721;SDS011;53633;49.932;10.884;2022-09-30T05:23:08;26.20;;;5.78;;
66721;SDS011;53633;49.932;10.884;2022-09-30T05:25:34;12.80;;;5.65;;
66721;SDS011;53633;49.932;10.884;2022-09-30T05:28:01;15.85;;;5.07;;
66721;SDS011;53633;49.932;10.884;2022-09-30T05:30:28;14.27;;;4.70;;
66721;SDS011;53633;49.932;10.884;2022-09-30T05:32:56;11.00;;;4.72;;
66721;SDS011;53633;49.932;10.884;2022-09-30T05:35:22;18.48;;;6.00;;
66721;SDS011;53633;49.932;10.884;2022-09-30T05:37:49;23.83;;;4.53;;
66721;SDS011;53633;49.932;10.884;2022-09-30T05:40:15;13.27;;;4.90;;
66721;SDS011;53633;49.932;10.884;2022-09-30T05:42:42;12.30;;;3.73;;
66721;SDS011;53633;49.932;10.884;2022-09-30T05:45:09;15.13;;;4.10;;
66721;SDS011;53633;49.932;10.884;2022-09-30T05:47:36;21.08;;;4.07;;
66721;SDS011;53633;49.932;10.884;2022-09-30T05:50:04;12.90;;;4.70;;
66721;SDS011;53633;49.932;10.884;2022-09-30T05:52:31;28.08;;;5.97;;
66721;SDS011;53633;49.932;10.884;2022-09-30T05:54:58;13.03;;;4.23;;
66721;SDS011;53633;49.932;10.884;2022-09-30T05:57:24;9.35;;;4.43;;
66721;SDS011;53633;49.932;10.884;2022-09-30T05:59:52;10.10;;;4.03;;
66721;SDS011;53633;49.932;10.884;2022-09-30T06:02:18;17.05;;;3.78;;
66721;SDS011;53633;49.932;10.884;2022-09-30T06:04:45;13.50;;;3.95;;
66721;SDS011;53633;49.932;10.884;2022-09-30T06:07:13;29.10;;;4.20;;
66721;SDS011;53633;49.932;10.884;2022-09-30T06:09:40;9.15;;;3.60;;
66721;SDS011;53633;49.932;10.884;2022-09-30T06:12:06;16.30;;;4.13;;
66721;SDS011;53633;49.932;10.884;2022-09-30T06:14:33;16.40;;;3.60;;
66721;SDS011;53633;49.932;10.884;2022-09-30T06:17:00;30.85;;;7.40;;
66721;SDS011;53633;49.932;10.884;2022-09-30T06:19:27;33.03;;;10.27;;
66721;SDS011;53633;49.932;10.884;2022-09-30T06:21:57;18.52;;;6.63;;
66721;SDS011;53633;49.932;10.884;2022-09-30T06:24:29;13.75;;;5.25;;
66721;SDS011;53633;49.932;10.884;2022-09-30T06:26:56;8.35;;;3.63;;
66721;SDS011;53633;49.932;10.884;2022-09-30T06:29:22;10.25;;;3.78;;
66721;SDS011;53633;49.932;10.884;2022-09-30T06:31:49;13.23;;;3.60;;
66721;SDS011;53633;49.932;10.884;2022-09-30T06:34:16;25.15;;;9.05;;
66721;SDS011;53633;49.932;10.884;2022-09-30T06:36:42;11.95;;;5.55;;
66721;SDS011;53633;49.932;10.884;2022-09-30T06:39:09;8.95;;;4.05;;
66721;SDS011;53633;49.932;10.884;2022-09-30T06:41:40;8.82;;;2.92;;
66721;SDS011;53633;49.932;10.884;2022-09-30T06:44:07;8.77;;;3.53;;
66721;SDS011;53633;49.932;10.884;2022-09-30T06:46:33;7.20;;;3.00;;
66721;SDS011;53633;49.932;10.884;2022-09-30T06:49:06;7.55;;;3.03;;
66721;SDS011;53633;49.932;10.884;2022-09-30T06:51:46;18.13;;;4.55;;
66721;SDS011;53633;49.932;10.884;2022-09-30T06:54:13;19.45;;;5.03;;
66721;SDS011;53633;49.932;10.884;2022-09-30T06:56:41;8.33;;;3.47;;
66721;SDS011;53633;49.932;10.884;2022-09-30T06:59:12;14.38;;;4.72;;
66721;SDS011;53633;49.932;10.884;2022-09-30T07:01:38;8.75;;;3.90;;
66721;SDS011;53633;49.932;10.884;2022-09-30T07:04:05;8.05;;;3.70;;
66721;SDS011;53633;49.932;10.884;2022-09-30T07:06:33;11.70;;;3.55;;
66721;SDS011;53633;49.932;10.884;2022-09-30T07:09:05;13.17;;;3.17;;
66721;SDS011;53633;49.932;10.884;2022-09-30T07:11:32;15.15;;;5.28;;
66721;SDS011;53633;49.932;10.884;2022-09-30T07:14:00;10.63;;;3.90;;
66721;SDS011;53633;49.932;10.884;2022-09-30T07:16:26;8.52;;;3.63;;
66721;SDS011;53633;49.932;10.884;2022-09-30T07:19:03;11.13;;;3.05;;
66721;SDS011;53633;49.932;10.884;2022-09-30T07:21:30;24.07;;;3.93;;
66721;SDS011;53633;49.932;10.884;2022-09-30T07:24:03;8.65;;;3.13;;
66721;SDS011;53633;49.932;10.884;2022-09-30T07:26:34;12.70;;;3.13;;
66721;SDS011;53633;49.932;10.884;2022-09-30T07:29:07;11.18;;;3.50;;
66721;SDS011;53633;49.932;10.884;2022-09-30T07:31:34;14.85;;;4.20;;
66721;SDS011;53633;49.932;10.884;2022-09-30T07:34:01;8.37;;;3.37;;
66721;SDS011;53633;49.932;10.884;2022-09-30T07:36:29;7.97;;;3.65;;
66721;SDS011;53633;49.932;10.884;2022-09-30T07:38:59;8.88;;;3.70;;
66721;SDS011;53633;49.932;10.884;2022-09-30T07:41:26;7.13;;;3.10;;
66721;SDS011;53633;49.932;10.884;2022-09-30T07:43:53;7.32;;;3.10;;
66721;SDS011;53633;49.932;10.884;2022-09-30T07:46:23;7.80;;;3.07;;
66721;SDS011;53633;49.932;10.884;2022-09-30T07:48:55;8.43;;;2.80;;
66721;SDS011;53633;49.932;10.884;2022-09-30T07:51:24;6.88;;;3.00;;
66721;SDS011;53633;49.932;10.884;2022-09-30T07:53:53;6.85;;;2.60;;
66721;SDS011;53633;49.932;10.884;2022-09-30T07:56:27;10.95;;;2.45;;
66721;SDS011;53633;49.932;10.884;2022-09-30T07:59:14;8.40;;;3.00;;
66721;SDS011;53633;49.932;10.884;2022-09-30T08:01:43;8.70;;;2.92;;
66721;SDS011;53633;49.932;10.884;2022-09-30T08:04:10;6.68;;;2.90;;
66721;SDS011;53633;49.932;10.884;2022-09-30T08:06:39;6.15;;;2.47;;
66721;SDS011;53633;49.932;10.884;2022-09-30T08:09:07;6.90;;;2.80;;
66721;SDS011;53633;49.932;10.884;2022-09-30T08:11:35;11.40;;;3.20;;
66721;SDS011;53633;49.932;10.884;2022-09-30T08:14:02;6.25;;;2.75;;
66721;SDS011;53633;49.932;10.884;2022-09-30T08:16:30;6.78;;;2.55;;
66721;SDS011;53633;49.932;10.884;2022-09-30T08:18:59;15.55;;;2.88;;
66721;SDS011;53633;49.932;10.884;2022-09-30T08:21:27;19.20;;;3.53;;
66721;SDS011;53633;49.932;10.884;2022-09-30T08:24:02;11.83;;;3.70;;
66721;SDS011;53633;49.932;10.884;2022-09-30T08:26:28;7.53;;;3.30;;
66721;SDS011;53633;49.932;10.884;2022-09-30T08:28:55;7.15;;;3.00;;
66721;SDS011;53633;49.932;10.884;2022-09-30T08:31:26;8.05;;;3.20;;
66721;SDS011;53633;49.932;10.884;2022-09-30T08:33:56;6.55;;;2.72;;
66721;SDS011;53633;49.932;10.884;2022-09-30T08:36:25;6.83;;;2.60;;
66721;SDS011;53633;49.932;10.884;2022-09-30T08:38:52;7.18;;;3.00;;
66721;SDS011;53633;49.932;10.884;2022-09-30T08:41:22;7.88;;;3.58;;
66721;SDS011;53633;49.932;10.884;2022-09-30T08:44:15;7.85;;;3.10;;
66721;SDS011;53633;49.932;10.884;2022-09-30T08:47:24;7.78;;;3.08;;
66721;SDS011;53633;49.932;10.884;2022-09-30T08:50:03;6.93;;;2.70;;
66721;SDS011;53633;49.932;10.884;2022-09-30T08:52:39;7.60;;;2.78;;
66721;SDS011;53633;49.932;10.884;2022-09-30T08:55:19;7.07;;;3.25;;
66721;SDS011;53633;49.932;10.884;2022-09-30T08:57:54;8.35;;;3.03;;
66721;SDS011;53633;49.932;10.884;2022-09-30T09:00:22;8.50;;;3.60;;
66721;SDS011;53633;49.932;10.884;2022-09-30T09:02:50;8.53;;;4.27;;
66721;SDS011;53633;49.932;10.884;2022-09-30T09:05:25;7.97;;;3.65;;
66721;SDS011;53633;49.932;10.884;2022-09-30T09:08:03;8.38;;;4.00;;
66721;SDS011;53633;49.932;10.884;2022-09-30T09:10:39;10.02;;;4.72;;
66721;SDS011;53633;49.932;10.884;2022-09-30T09:13:15;7.40;;;3.28;;
66721;SDS011;53633;49.932;10.884;2022-09-30T09:15:58;7.50;;;3.20;;
66721;SDS011;53633;49.932;10.884;2022-09-30T09:21:21;8.85;;;4.15;;
66721;SDS011;53633;49.932;10.884;2022-09-30T09:23:54;11.60;;;4.70;;
66721;SDS011;53633;49.932;10.884;2022-09-30T09:26:25;9.68;;;4.40;;
66721;SDS011;53633;49.932;10.884;2022-09-30T09:28:58;10.00;;;4.97;;
66721;SDS011;53633;49.932;10.884;2022-09-30T09:31:32;9.40;;;4.88;;
66721;SDS011;53633;49.932;10.884;2022-09-30T09:34:00;9.27;;;5.30;;
66721;SDS011;53633;49.932;10.884;2022-09-30T09:36:45;9.80;;;4.97;;
66721;SDS011;53633;49.932;10.884;2022-09-30T09:39:26;9.43;;;4.10;;
66721;SDS011;53633;49.932;10.884;2022-09-30T09:42:11;8.67;;;4.03;;
66721;SDS011;53633;49.932;10.884;2022-09-30T09:44:53;8.50;;;4.13;;
66721;SDS011;53633;49.932;10.884;2022-09-30T09:47:25;9.13;;;5.00;;
66721;SDS011;53633;49.932;10.884;2022-09-30T09:49:56;8.35;;;4.90;;
66721;SDS011;53633;49.932;10.884;2022-09-30T09:52:34;7.43;;;3.70;;
66721;SDS011;53633;49.932;10.884;2022-09-30T09:55:12;9.20;;;5.20;;
66721;SDS011;53633;49.932;10.884;2022-09-30T09:57:41;9.35;;;4.55;;
66721;SDS011;53633;49.932;10.884;2022-09-30T10:00:08;7.97;;;4.22;;
66721;SDS011;53633;49.932;10.884;2022-09-30T10:02:36;9.13;;;4.88;;
66721;SDS011;53633;49.932;10.884;2022-09-30T10:05:03;9.02;;;4.65;;
66721;SDS011;53633;49.932;10.884;2022-09-30T10:07:32;9.03;;;4.60;;
66721;SDS011;53633;49.932;10.884;2022-09-30T10:10:06;10.15;;;4.88;;
66721;SDS011;53633;49.932;10.884;2022-09-30T10:12:47;8.95;;;4.70;;
66721;SDS011;53633;49.932;10.884;2022-09-30T10:15:17;8.18;;;4.40;;
66721;SDS011;53633;49.932;10.884;2022-09-30T10:17:49;9.43;;;4.80;;
66721;SDS011;53633;49.932;10.884;2022-09-30T10:20:19;12.97;;;5.50;;
66721;SDS011;53633;49.932;10.884;2022-09-30T10:23:08;9.88;;;4.43;;
66721;SDS011;53633;49.932;10.884;2022-09-30T10:25:50;9.65;;;4.72;;
66721;SDS011;53633;49.932;10.884;2022-09-30T10:28:22;8.50;;;4.15;;
66721;SDS011;53633;49.932;10.884;2022-09-30T10:30:50;9.82;;;5.45;;
66721;SDS011;53633;49.932;10.884;2022-09-30T10:33:22;8.90;;;5.27;;
66721;SDS011;53633;49.932;10.884;2022-09-30T10:35:54;8.77;;;4.68;;
66721;SDS011;53633;49.932;10.884;2022-09-30T10:38:30;9.05;;;4.53;;
66721;SDS011;53633;49.932;10.884;2022-09-30T10:40:57;9.80;;;5.30;;
66721;SDS011;53633;49.932;10.884;2022-09-30T10:43:26;11.38;;;5.88;;
66721;SDS011;53633;49.932;10.884;2022-09-30T10:45:56;9.97;;;4.97;;
66721;SDS011;53633;49.932;10.884;2022-09-30T10:48:44;11.52;;;5.28;;
66721;SDS011;53633;49.932;10.884;2022-09-30T10:51:20;9.70;;;5.38;;
66721;SDS011;53633;49.932;10.884;2022-09-30T10:53:55;10.95;;;4.95;;
66721;SDS011;53633;49.932;10.884;2022-09-30T10:56:36;11.80;;;5.60;;
66721;SDS011;53633;49.932;10.884;2022-09-30T10:59:06;10.13;;;4.50;;
66721;SDS011;53633;49.932;10.884;2022-09-30T11:01:45;10.18;;;4.28;;
66721;SDS011;53633;49.932;10.884;2022-09-30T11:04:21;10.35;;;3.90;;
66721;SDS011;53633;49.932;10.884;2022-09-30T11:06:53;7.22;;;3.63;;
66721;SDS011;53633;49.932;10.884;2022-09-30T11:09:33;8.43;;;3.63;;
66721;SDS011;53633;49.932;10.884;2022-09-30T11:12:33;7.83;;;3.30;;
66721;SDS011;53633;49.932;10.884;2022-09-30T11:15:12;7.10;;;3.35;;
66721;SDS011;53633;49.932;10.884;2022-09-30T11:17:46;6.47;;;3.00;;
66721;SDS011;53633;49.932;10.884;2022-09-30T11:20:22;5.50;;;2.40;;
66721;SDS011;53633;49.932;10.884;2022-09-30T11:22:53;6.75;;;2.70;;
66721;SDS011;53633;49.932;10.884;2022-09-30T11:25:32;7.23;;;2.40;;
66721;SDS011;53633;49.932;10.884;2022-09-30T11:28:16;6.45;;;2.85;;
66721;SDS011;53633;49.932;10.884;2022-09-30T11:30:55;5.97;;;2.83;;
66721;SDS011;53633;49.932;10.884;2022-09-30T11:33:34;7.32;;;2.97;;
66721;SDS011;53633;49.932;10.884;2022-09-30T11:36:12;7.28;;;2.55;;
66721;SDS011;53633;49.932;10.884;2022-09-30T11:38:54;8.43;;;2.70;;
66721;SDS011;53633;49.932;10.884;2022-09-30T11:41:32;6.38;;;2.80;;
66721;SDS011;53633;49.932;10.884;2022-09-30T11:44:04;7.50;;;2.65;;
66721;SDS011;53633;49.932;10.884;2022-09-30T11:46:45;6.47;;;2.20;;
66721;SDS011;53633;49.932;10.884;2022-09-30T11:49:39;7.65;;;2.90;;
66721;SDS011;53633;49.932;10.884;2022-09-30T11:52:19;6.80;;;2.80;;
66721;SDS011;53633;49.932;10.884;2022-09-30T11:54:56;10.52;;;3.17;;
66721;SDS011;53633;49.932;10.884;2022-09-30T11:57:44;8.02;;;2.28;;
66721;SDS011;53633;49.932;10.884;2022-09-30T12:00:16;7.30;;;2.42;;
66721;SDS011;53633;49.932;10.884;2022-09-30T12:02:44;6.53;;;2.28;;
66721;SDS011;53633;49.932;10.884;2022-09-30T12:05:15;7.13;;;2.90;;
66721;SDS011;53633;49.932;10.884;2022-09-30T12:07:46;8.57;;;2.67;;
66721;SDS011;53633;49.932;10.884;2022-09-30T12:10:20;6.50;;;2.10;;
66721;SDS011;53633;49.932;10.884;2022-09-30T12:12:59;6.90;;;2.35;;
66721;SDS011;53633;49.932;10.884;2022-09-30T12:15:29;7.22;;;2.70;;
66721;SDS011;53633;49.932;10.884;2022-09-30T12:17:57;5.50;;;2.10;;
66721;SDS011;53633;49.932;10.884;2022-09-30T12:20:28;6.60;;;2.03;;
66721;SDS011;53633;49.932;10.884;2022-09-30T12:23:00;7.18;;;3.20;;
66721;SDS011;53633;49.932;10.884;2022-09-30T12:25:35;9.95;;;4.45;;
66721;SDS011;53633;49.932;10.884;2022-09-30T12:28:07;6.85;;;3.25;;
66721;SDS011;53633;49.932;10.884;2022-09-30T12:30:46;7.27;;;3.03;;
66721;SDS011;53633;49.932;10.884;2022-09-30T12:33:27;9.52;;;2.67;;
66721;SDS011;53633;49.932;10.884;2022-09-30T12:36:09;6.03;;;2.50;;
66721;SDS011;53633;49.932;10.884;2022-09-30T12:39:09;7.22;;;2.15;;
66721;SDS011;53633;49.932;10.884;2022-09-30T12:42:14;5.57;;;1.85;;
66721;SDS011;53633;49.932;10.884;2022-09-30T12:47:57;5.30;;;1.50;;
66721;SDS011;53633;49.932;10.884;2022-09-30T12:50:39;4.72;;;1.50;;
66721;SDS011;53633;49.932;10.884;2022-09-30T12:53:08;4.13;;;1.25;;
66721;SDS011;53633;49.932;10.884;2022-09-30T12:55:45;6.10;;;2.17;;
66721;SDS011;53633;49.932;10.884;2022-09-30T12:58:19;5.33;;;1.60;;
66721;SDS011;53633;49.932;10.884;2022-09-30T13:00:58;3.30;;;1.10;;
66721;SDS011;53633;49.932;10.884;2022-09-30T13:03:47;3.28;;;1.10;;
66721;SDS011;53633;49.932;10.884;2022-09-30T13:06:15;6.43;;;1.40;;
66721;SDS011;53633;49.932;10.884;2022-09-30T13:08:47;4.65;;;1.15;;
66721;SDS011;53633;49.932;10.884;2022-09-30T13:11:35;4.10;;;1.30;;
66721;SDS011;53633;49.932;10.884;2022-09-30T13:19:54;3.42;;;0.90;;
66721;SDS011;53633;49.932;10.884;2022-09-30T13:25:22;6.53;;;1.40;;
66721;SDS011;53633;49.932;10.884;2022-09-30T13:28:24;21.63;;;4.05;;
66721;SDS011;53633;49.932;10.884;2022-09-30T13:31:10;15.73;;;2.70;;
66721;SDS011;53633;49.932;10.884;2022-09-30T13:33:42;6.45;;;1.55;;
66721;SDS011;53633;49.932;10.884;2022-09-30T13:39:19;3.80;;;0.97;;
66721;SDS011;53633;49.932;10.884;2022-09-30T13:42:00;4.72;;;1.10;;
66721;SDS011;53633;49.932;10.884;2022-09-30T13:44:34;8.70;;;0.95;;
66721;SDS011;53633;49.932;10.884;2022-09-30T13:47:14;4.45;;;1.48;;
66721;SDS011;53633;49.932;10.884;2022-09-30T13:49:50;4.47;;;1.00;;
66721;SDS011;53633;49.932;10.884;2022-09-30T13:52:23;2.73;;;0.67;;
66721;SDS011;53633;49.932;10.884;2022-09-30T13:54:51;2.95;;;0.93;;
66721;SDS011;53633;49.932;10.884;2022-09-30T13:57:22;4.47;;;1.00;;
66721;SDS011;53633;49.932;10.884;2022-09-30T13:59:55;5.05;;;1.20;;
66721;SDS011;53633;49.932;10.884;2022-09-30T14:05:27;5.37;;;1.20;;
66721;SDS011;53633;49.932;10.884;2022-09-30T14:08:09;3.90;;;1.10;;
66721;SDS011;53633;49.932;10.884;2022-09-30T14:10:54;5.22;;;1.23;;
66721;SDS011;53633;49.932;10.884;2022-09-30T14:13:31;7.47;;;1.33;;
66721;SDS011;53633;49.932;10.884;2022-09-30T14:19:24;3.50;;;0.90;;
66721;SDS011;53633;49.932;10.884;2022-09-30T14:22:03;2.63;;;0.70;;
66721;SDS011;53633;49.932;10.884;2022-09-30T14:24:34;4.18;;;0.93;;
66721;SDS011;53633;49.932;10.884;2022-09-30T14:29:59;3.90;;;1.00;;
66721;SDS011;53633;49.932;10.884;2022-09-30T14:32:31;3.03;;;0.97;;
66721;SDS011;53633;49.932;10.884;2022-09-30T14:34:59;2.97;;;0.80;;
66721;SDS011;53633;49.932;10.884;2022-09-30T14:37:40;3.90;;;0.82;;
66721;SDS011;53633;49.932;10.884;2022-09-30T14:40:12;4.35;;;0.90;;
66721;SDS011;53633;49.932;10.884;2022-09-30T14:42:42;3.53;;;1.08;;
66721;SDS011;53633;49.932;10.884;2022-09-30T14:45:12;6.23;;;0.90;;
66721;SDS011;53633;49.932;10.884;2022-09-30T14:47:44;4.18;;;1.30;;
66721;SDS011;53633;49.932;10.884;2022-09-30T14:50:13;3.30;;;1.00;;
66721;SDS011;53633;49.932;10.884;2022-09-30T14:52:43;3.97;;;1.20;;
66721;SDS011;53633;49.932;10.884;2022-09-30T14:55:23;3.22;;;0.98;;
66721;SDS011;53633;49.932;10.884;2022-09-30T14:57:52;3.47;;;1.07;;
66721;SDS011;53633;49.932;10.884;2022-09-30T15:00:21;4.25;;;1.23;;
66721;SDS011;53633;49.932;10.884;2022-09-30T15:02:54;4.82;;;1.20;;
66721;SDS011;53633;49.932;10.884;2022-09-30T15:05:21;6.55;;;1.13;;
66721;SDS011;53633;49.932;10.884;2022-09-30T15:07:47;5.28;;;1.30;;
66721;SDS011;53633;49.932;10.884;2022-09-30T15:10:18;4.17;;;1.10;;
66721;SDS011;53633;49.932;10.884;2022-09-30T15:12:48;3.80;;;1.05;;
66721;SDS011;53633;49.932;10.884;2022-09-30T15:20:54;5.07;;;1.08;;
66721;SDS011;53633;49.932;10.884;2022-09-30T15:23:24;3.53;;;1.20;;
66721;SDS011;53633;49.932;10.884;2022-09-30T15:25:53;4.25;;;1.17;;
66721;SDS011;53633;49.932;10.884;2022-09-30T15:28:22;4.40;;;1.33;;
66721;SDS011;53633;49.932;10.884;2022-09-30T15:30:49;4.10;;;1.20;;
66721;SDS011;53633;49.932;10.884;2022-09-30T15:33:17;4.30;;;1.10;;
66721;SDS011;53633;49.932;10.884;2022-09-30T15:35:47;3.90;;;1.30;;
66721;SDS011;53633;49.932;10.884;2022-09-30T15:38:15;4.13;;;1.55;;